Adele Elise — WDD7691 — position and weather

sailwx.info

Track history (hours):
 
Tides and Currents Weather Stations Pressure Air Temp Water Temp Dewpoint Dewpoint Depression Visibility Wind Speed Wind Dir Waves Ship Positions

Adele Elise

Owner: ADELE ELISE LLC, MATHEWS, LA. More information available from US FCC via Universal Licensing System and Coast Guard Vessel Documentation Center.

Last reported at 2017-Oct-20 05:00 UTC. Time now 2017-Nov-20 15:18 UTC.
Position N 32°22' W 117°41'.
Warning: this ship's position is 31 days out of date.

Length 70 m; draft 3 m.

MMSI: 367189890.

Date/timePositionNaut miles runAvg speedWind from/ knotsBaromVisibWave heightAir tempDewpointWater temp
2017-Oct-20 05:00N 32°22' W 117°41'510.0
2017-Oct-20 04:28N 32°27' W 117°43'5 9.8
2017-Oct-20 03:59N 32°31' W 117°45'7 9.8
2017-Oct-20 03:17N 32°38' W 117°47'3 9.7
2017-Oct-20 03:00N 32°40' W 117°49'5 9.9
2017-Oct-20 02:30N 32°44' W 117°53'1310.0
2017-Oct-20 01:14N 32°53' W 118°04'4 9.8
2017-Oct-20 00:53N 32°55' W 118°07'510.0
2017-Oct-20 00:22N 32°58' W 118°11'610.1
2017-Oct-19 23:49N 33°02' W 118°16'510.3
2017-Oct-19 23:21N 33°06' W 118°20'410.5
2017-Oct-19 23:00N 33°08' W 118°23'510.3
2017-Oct-19 22:30N 33°12' W 118°28'510.0
2017-Oct-19 22:00N 33°15' W 118°32'5 9.7
2017-Oct-19 21:30N 33°19' W 118°36'510.0
2017-Oct-19 21:00N 33°22' W 118°40'5 9.7
2017-Oct-19 20:29N 33°26' W 118°44'5 9.7
2017-Oct-19 20:00N 33°30' W 118°47'5 9.7
2017-Oct-19 19:30N 33°34' W 118°51'5 9.2
2017-Oct-19 19:00N 33°38' W 118°54'5 9.1
2017-Oct-19 18:30N 33°41' W 118°57'4 8.8
2017-Oct-19 18:00N 33°45' W 118°59'4 8.4
2017-Oct-19 17:30N 33°49' W 119°01'4 8.5
2017-Oct-19 17:00N 33°52' W 119°06'510.1
2017-Oct-19 16:30N 33°56' W 119°09'510.3
2017-Oct-19 16:01N 33°60' W 119°12'510.2
2017-Oct-19 15:30N 34°05' W 119°13'4 7.5
2017-Oct-19 14:59N 34°09' W 119°12'0 0.1
2017-Oct-19 14:08N 34°09' W 119°12'0 0.0
2017-Oct-19 13:50N 34°09' W 119°12'0 0.0
2017-Oct-19 13:29N 34°09' W 119°12'0 0.0
2017-Oct-19 12:52N 34°09' W 119°12'0 0.0
2017-Oct-19 12:26N 34°09' W 119°12'0 0.0
2017-Oct-19 11:41N 34°09' W 119°12'0 0.0
2017-Oct-19 11:29N 34°09' W 119°12'0 0.0
2017-Oct-19 10:59N 34°09' W 119°12'0 0.0
2017-Oct-19 10:19N 34°09' W 119°12'0 0.0
2017-Oct-19 09:55N 34°09' W 119°12'0 0.0
2017-Oct-19 09:08N 34°09' W 119°12'0 0.0
2017-Oct-19 08:58N 34°09' W 119°12'0 0.0
2017-Oct-19 08:28N 34°09' W 119°12'0 0.0
2017-Oct-19 07:37N 34°09' W 119°12'0 0.0
2017-Oct-19 06:04N 34°09' W 119°12'0 0.0
2017-Oct-19 05:58N 34°09' W 119°12'0 0.0
2017-Oct-19 05:28N 34°09' W 119°12'0 0.0
2017-Oct-19 04:22N 34°09' W 119°12'0 0.0
2017-Oct-19 03:52N 34°09' W 119°12'0 0.0
2017-Oct-19 03:22N 34°09' W 119°12'0 0.0
2017-Oct-19 02:58N 34°09' W 119°12'0 0.0
2017-Oct-19 02:16N 34°09' W 119°12'0 0.0
2017-Oct-19 01:58N 34°09' W 119°12'0 0.0
2017-Oct-19 01:19N 34°09' W 119°12'0 0.0
2017-Oct-19 00:58N 34°09' W 119°12'0 0.0
2017-Oct-19 00:17N 34°09' W 119°12'0 0.0
2017-Oct-18 23:58N 34°09' W 119°12'0 0.0
2017-Oct-18 23:22N 34°09' W 119°12'0 0.0
2017-Oct-18 22:55N 34°09' W 119°12'0 0.0
2017-Oct-18 22:28N 34°09' W 119°12'0 0.0
2017-Oct-18 21:58N 34°09' W 119°12'0 0.0
2017-Oct-18 21:16N 34°09' W 119°12'0 0.0
2017-Oct-18 20:52N 34°09' W 119°12'0 0.0
2017-Oct-18 19:49N 34°09' W 119°12'0 0.0
2017-Oct-18 19:25N 34°09' W 119°12'0 0.0
2017-Oct-18 18:46N 34°09' W 119°12'0 0.0
2017-Oct-18 18:28N 34°09' W 119°12'0 0.0
2017-Oct-18 17:58N 34°09' W 119°12'0 0.0
2017-Oct-18 17:22N 34°09' W 119°12'0 0.0
2017-Oct-18 14:52N 34°09' W 119°12'0 0.0
2017-Oct-18 13:37N 34°09' W 119°12'0 0.0
2017-Oct-18 10:10N 34°09' W 119°12'0 0.0
2017-Oct-18 09:46N 34°09' W 119°12'0 0.0
2017-Oct-18 09:07N 34°09' W 119°12'0 0.0
2017-Oct-18 06:37N 34°09' W 119°12'0 0.0
2017-Oct-18 06:25N 34°09' W 119°12'0 0.0
2017-Oct-17 18:28N 34°09' W 119°12'0 0.0
2017-Oct-17 14:22N 34°09' W 119°12'0 0.0
2017-Oct-17 13:58N 34°09' W 119°12'0 0.0
2017-Oct-17 13:28N 34°09' W 119°12'0 0.0
2017-Oct-17 10:52N 34°09' W 119°12'0 0.0
2017-Oct-17 04:16N 34°09' W 119°12'0 0.0
2017-Oct-17 02:46N 34°09' W 119°12'0 0.0
2017-Oct-16 08:43N 34°09' W 119°12'0 0.0
2017-Oct-16 08:25N 34°09' W 119°12'0 0.0
2017-Oct-16 02:10N 34°09' W 119°12'0 0.0
2017-Oct-16 01:46N 34°09' W 119°12'0 0.0
2017-Oct-15 21:46N 34°09' W 119°12'0 0.0
2017-Oct-15 18:54N 34°09' W 119°12'0 0.0
2017-Oct-15 18:24N 34°09' W 119°12'0 0.0
2017-Oct-15 16:48N 34°09' W 119°12'0 0.0
2017-Oct-15 16:30N 34°09' W 119°12'0 0.0
2017-Oct-15 13:45N 34°09' W 119°12'0 0.0
2017-Oct-15 13:30N 34°09' W 119°12'0 0.0
2017-Oct-15 13:00N 34°09' W 119°12'0 0.0
2017-Oct-15 12:12N 34°09' W 119°12'0 0.0
2017-Oct-15 11:54N 34°09' W 119°12'0 0.0
2017-Oct-15 11:24N 34°09' W 119°12'0 0.0
2017-Oct-15 10:57N 34°09' W 119°12'0 0.0
2017-Oct-15 10:18N 34°09' W 119°12'0 0.0
2017-Oct-15 09:48N 34°09' W 119°12'0 0.0
2017-Oct-15 09:30N 34°09' W 119°12'0 0.0
2017-Oct-15 09:00N 34°09' W 119°12'0 0.0
2017-Oct-15 08:30N 34°09' W 119°12'0 0.0
2017-Oct-15 08:00N 34°09' W 119°12'0 0.0
2017-Oct-15 07:30N 34°09' W 119°12'0 0.0
2017-Oct-15 07:00N 34°09' W 119°12'0 0.0
2017-Oct-15 06:21N 34°09' W 119°12'0 0.0
2017-Oct-15 06:00N 34°09' W 119°12'0 0.0
2017-Oct-15 05:30N 34°09' W 119°12'0 0.0
2017-Oct-15 05:00N 34°09' W 119°12'0 0.0
2017-Oct-15 02:39N 34°09' W 119°12'0 0.0
2017-Oct-15 02:15N 34°09' W 119°12'0 0.0
2017-Oct-15 02:00N 34°09' W 119°12'0 0.0
2017-Oct-15 01:30N 34°09' W 119°12'0 0.0
2017-Oct-15 00:48N 34°09' W 119°12'0 0.0
2017-Oct-15 00:18N 34°09' W 119°12'0 0.0
2017-Oct-14 23:54N 34°09' W 119°12'0 0.0
2017-Oct-14 23:30N 34°09' W 119°12'0 0.0
2017-Oct-14 22:42N 34°09' W 119°12'0 0.0
2017-Oct-14 22:30N 34°09' W 119°12'0 0.0
2017-Oct-14 22:00N 34°09' W 119°12'0 0.0
2017-Oct-14 21:21N 34°09' W 119°12'0 0.0
2017-Oct-14 21:00N 34°09' W 119°12'0 0.0
2017-Oct-14 20:24N 34°09' W 119°12'0 0.0
2017-Oct-14 20:00N 34°09' W 119°12'0 0.0
2017-Oct-14 19:30N 34°09' W 119°12'0 0.0
2017-Oct-14 19:00N 34°09' W 119°12'0 0.0
2017-Oct-14 18:30N 34°09' W 119°12'0 0.0
2017-Oct-14 17:57N 34°09' W 119°12'0 0.0
2017-Oct-14 17:12N 34°09' W 119°12'0 0.0
2017-Oct-14 16:27N 34°09' W 119°12'0 0.0
2017-Oct-14 14:48N 34°09' W 119°12'0 0.0
2017-Oct-14 14:30N 34°09' W 119°12'0 0.2
2017-Oct-14 14:00N 34°09' W 119°12'3 5.6
2017-Oct-14 13:28N 34°06' W 119°14'4 9.1
2017-Oct-14 13:00N 34°02' W 119°12'5 9.4
2017-Oct-14 12:30N 33°58' W 119°11'5 9.4
2017-Oct-14 12:00N 33°54' W 119°08'5 9.4
2017-Oct-14 11:30N 33°50' W 119°04'5 9.5
2017-Oct-14 11:00N 33°46' W 119°01'5 9.8
2017-Oct-14 10:30N 33°42' W 118°58'5 9.5
2017-Oct-14 10:00N 33°38' W 118°55'5 9.5
2017-Oct-14 09:30N 33°34' W 118°51'5 9.1
2017-Oct-14 09:00N 33°30' W 118°48'4 9.1
2017-Oct-14 08:30N 33°27' W 118°45'5 9.5
2017-Oct-14 08:00N 33°23' W 118°42'5 9.5
2017-Oct-14 07:30N 33°20' W 118°38'5 9.2
2017-Oct-14 07:00N 33°17' W 118°34'4 8.9
2017-Oct-14 06:30N 33°14' W 118°30'5 9.0
2017-Oct-14 06:00N 33°10' W 118°26'4 8.7
2017-Oct-14 05:30N 33°07' W 118°22'4 8.5
2017-Oct-14 05:00N 33°04' W 118°18'4 8.6
2017-Oct-14 04:30N 33°01' W 118°15'5 9.3
2017-Oct-14 04:00N 32°58' W 118°11'5 9.4
2017-Oct-14 03:30N 32°55' W 118°07'5 9.2
2017-Oct-14 03:00N 32°52' W 118°03'5 9.7
2017-Oct-14 02:30N 32°49' W 117°58'5 9.9
2017-Oct-14 02:00N 32°45' W 117°54'5 9.9
2017-Oct-14 01:30N 32°42' W 117°50'510.1
2017-Oct-14 01:00N 32°38' W 117°45'510.7
2017-Oct-14 00:30N 32°35' W 117°41'510.8
2017-Oct-14 00:00N 32°31' W 117°36'510.9
2017-Oct-13 23:30N 32°27' W 117°31'510.7
2017-Oct-13 23:00N 32°24' W 117°27'510.6
2017-Oct-13 22:30N 32°20' W 117°22'510.7
2017-Oct-13 22:00N 32°17' W 117°17'  
Track history (hours):
 
Tides and Currents Weather Stations Pressure Air Temp Water Temp Dewpoint Dewpoint Depression Visibility Wind Speed Wind Dir Waves Ship Positions

Adele Elise

Owner: ADELE ELISE LLC, MATHEWS, LA. More information available from US FCC via Universal Licensing System and Coast Guard Vessel Documentation Center.

Last reported at 2017-Oct-20 05:00 UTC. Time now 2017-Nov-20 15:18 UTC.
Position N 32°22' W 117°41'.
Warning: this ship's position is 31 days out of date.

Length 70 m; draft 3 m.

MMSI: 367189890.

Date/timePositionNaut miles runAvg speedWind from/ knotsBaromVisibWave heightAir tempDewpointWater temp
2017-Oct-20 05:00N 32°22' W 117°41'510.0
2017-Oct-20 04:28N 32°27' W 117°43'5 9.8
2017-Oct-20 03:59N 32°31' W 117°45'7 9.8
2017-Oct-20 03:17N 32°38' W 117°47'3 9.7
2017-Oct-20 03:00N 32°40' W 117°49'5 9.9
2017-Oct-20 02:30N 32°44' W 117°53'1310.0
2017-Oct-20 01:14N 32°53' W 118°04'4 9.8
2017-Oct-20 00:53N 32°55' W 118°07'510.0
2017-Oct-20 00:22N 32°58' W 118°11'610.1
2017-Oct-19 23:49N 33°02' W 118°16'510.3
2017-Oct-19 23:21N 33°06' W 118°20'410.5
2017-Oct-19 23:00N 33°08' W 118°23'510.3
2017-Oct-19 22:30N 33°12' W 118°28'510.0
2017-Oct-19 22:00N 33°15' W 118°32'5 9.7
2017-Oct-19 21:30N 33°19' W 118°36'510.0
2017-Oct-19 21:00N 33°22' W 118°40'5 9.7
2017-Oct-19 20:29N 33°26' W 118°44'5 9.7
2017-Oct-19 20:00N 33°30' W 118°47'5 9.7
2017-Oct-19 19:30N 33°34' W 118°51'5 9.2
2017-Oct-19 19:00N 33°38' W 118°54'5 9.1
2017-Oct-19 18:30N 33°41' W 118°57'4 8.8
2017-Oct-19 18:00N 33°45' W 118°59'4 8.4
2017-Oct-19 17:30N 33°49' W 119°01'4 8.5
2017-Oct-19 17:00N 33°52' W 119°06'510.1
2017-Oct-19 16:30N 33°56' W 119°09'510.3
2017-Oct-19 16:01N 33°60' W 119°12'510.2
2017-Oct-19 15:30N 34°05' W 119°13'4 7.5
2017-Oct-19 14:59N 34°09' W 119°12'0 0.1
2017-Oct-19 14:08N 34°09' W 119°12'0 0.0
2017-Oct-19 13:50N 34°09' W 119°12'0 0.0
2017-Oct-19 13:29N 34°09' W 119°12'0 0.0
2017-Oct-19 12:52N 34°09' W 119°12'0 0.0
2017-Oct-19 12:26N 34°09' W 119°12'0 0.0
2017-Oct-19 11:41N 34°09' W 119°12'0 0.0
2017-Oct-19 11:29N 34°09' W 119°12'0 0.0
2017-Oct-19 10:59N 34°09' W 119°12'0 0.0
2017-Oct-19 10:19N 34°09' W 119°12'0 0.0
2017-Oct-19 09:55N 34°09' W 119°12'0 0.0
2017-Oct-19 09:08N 34°09' W 119°12'0 0.0
2017-Oct-19 08:58N 34°09' W 119°12'0 0.0
2017-Oct-19 08:28N 34°09' W 119°12'0 0.0
2017-Oct-19 07:37N 34°09' W 119°12'0 0.0
2017-Oct-19 06:04N 34°09' W 119°12'0 0.0
2017-Oct-19 05:58N 34°09' W 119°12'0 0.0
2017-Oct-19 05:28N 34°09' W 119°12'0 0.0
2017-Oct-19 04:22N 34°09' W 119°12'0 0.0
2017-Oct-19 03:52N 34°09' W 119°12'0 0.0
2017-Oct-19 03:22N 34°09' W 119°12'0 0.0
2017-Oct-19 02:58N 34°09' W 119°12'0 0.0
2017-Oct-19 02:16N 34°09' W 119°12'0 0.0
2017-Oct-19 01:58N 34°09' W 119°12'0 0.0
2017-Oct-19 01:19N 34°09' W 119°12'0 0.0
2017-Oct-19 00:58N 34°09' W 119°12'0 0.0
2017-Oct-19 00:17N 34°09' W 119°12'0 0.0
2017-Oct-18 23:58N 34°09' W 119°12'0 0.0
2017-Oct-18 23:22N 34°09' W 119°12'0 0.0
2017-Oct-18 22:55N 34°09' W 119°12'0 0.0
2017-Oct-18 22:28N 34°09' W 119°12'0 0.0
2017-Oct-18 21:58N 34°09' W 119°12'0 0.0
2017-Oct-18 21:16N 34°09' W 119°12'0 0.0
2017-Oct-18 20:52N 34°09' W 119°12'0 0.0
2017-Oct-18 19:49N 34°09' W 119°12'0 0.0
2017-Oct-18 19:25N 34°09' W 119°12'0 0.0
2017-Oct-18 18:46N 34°09' W 119°12'0 0.0
2017-Oct-18 18:28N 34°09' W 119°12'0 0.0
2017-Oct-18 17:58N 34°09' W 119°12'0 0.0
2017-Oct-18 17:22N 34°09' W 119°12'0 0.0
2017-Oct-18 14:52N 34°09' W 119°12'0 0.0
2017-Oct-18 13:37N 34°09' W 119°12'0 0.0
2017-Oct-18 10:10N 34°09' W 119°12'0 0.0
2017-Oct-18 09:46N 34°09' W 119°12'0 0.0
2017-Oct-18 09:07N 34°09' W 119°12'0 0.0
2017-Oct-18 06:37N 34°09' W 119°12'0 0.0
2017-Oct-18 06:25N 34°09' W 119°12'0 0.0
2017-Oct-17 18:28N 34°09' W 119°12'0 0.0
2017-Oct-17 14:22N 34°09' W 119°12'0 0.0
2017-Oct-17 13:58N 34°09' W 119°12'0 0.0
2017-Oct-17 13:28N 34°09' W 119°12'0 0.0
2017-Oct-17 10:52N 34°09' W 119°12'0 0.0
2017-Oct-17 04:16N 34°09' W 119°12'0 0.0
2017-Oct-17 02:46N 34°09' W 119°12'0 0.0
2017-Oct-16 08:43N 34°09' W 119°12'0 0.0
2017-Oct-16 08:25N 34°09' W 119°12'0 0.0
2017-Oct-16 02:10N 34°09' W 119°12'0 0.0
2017-Oct-16 01:46N 34°09' W 119°12'0 0.0
2017-Oct-15 21:46N 34°09' W 119°12'0 0.0
2017-Oct-15 18:54N 34°09' W 119°12'0 0.0
2017-Oct-15 18:24N 34°09' W 119°12'0 0.0
2017-Oct-15 16:48N 34°09' W 119°12'0 0.0
2017-Oct-15 16:30N 34°09' W 119°12'0 0.0
2017-Oct-15 13:45N 34°09' W 119°12'0 0.0
2017-Oct-15 13:30N 34°09' W 119°12'0 0.0
2017-Oct-15 13:00N 34°09' W 119°12'0 0.0
2017-Oct-15 12:12N 34°09' W 119°12'0 0.0
2017-Oct-15 11:54N 34°09' W 119°12'0 0.0
2017-Oct-15 11:24N 34°09' W 119°12'0 0.0
2017-Oct-15 10:57N 34°09' W 119°12'0 0.0
2017-Oct-15 10:18N 34°09' W 119°12'0 0.0
2017-Oct-15 09:48N 34°09' W 119°12'0 0.0
2017-Oct-15 09:30N 34°09' W 119°12'0 0.0
2017-Oct-15 09:00N 34°09' W 119°12'0 0.0
2017-Oct-15 08:30N 34°09' W 119°12'0 0.0
2017-Oct-15 08:00N 34°09' W 119°12'0 0.0
2017-Oct-15 07:30N 34°09' W 119°12'0 0.0
2017-Oct-15 07:00N 34°09' W 119°12'0 0.0
2017-Oct-15 06:21N 34°09' W 119°12'0 0.0
2017-Oct-15 06:00N 34°09' W 119°12'0 0.0
2017-Oct-15 05:30N 34°09' W 119°12'0 0.0
2017-Oct-15 05:00N 34°09' W 119°12'0 0.0
2017-Oct-15 02:39N 34°09' W 119°12'0 0.0
2017-Oct-15 02:15N 34°09' W 119°12'0 0.0
2017-Oct-15 02:00N 34°09' W 119°12'0 0.0
2017-Oct-15 01:30N 34°09' W 119°12'0 0.0
2017-Oct-15 00:48N 34°09' W 119°12'0 0.0
2017-Oct-15 00:18N 34°09' W 119°12'0 0.0
2017-Oct-14 23:54N 34°09' W 119°12'0 0.0
2017-Oct-14 23:30N 34°09' W 119°12'0 0.0
2017-Oct-14 22:42N 34°09' W 119°12'0 0.0
2017-Oct-14 22:30N 34°09' W 119°12'0 0.0
2017-Oct-14 22:00N 34°09' W 119°12'0 0.0
2017-Oct-14 21:21N 34°09' W 119°12'0 0.0
2017-Oct-14 21:00N 34°09' W 119°12'0 0.0
2017-Oct-14 20:24N 34°09' W 119°12'0 0.0
2017-Oct-14 20:00N 34°09' W 119°12'0 0.0
2017-Oct-14 19:30N 34°09' W 119°12'0 0.0
2017-Oct-14 19:00N 34°09' W 119°12'0 0.0
2017-Oct-14 18:30N 34°09' W 119°12'0 0.0
2017-Oct-14 17:57N 34°09' W 119°12'0 0.0
2017-Oct-14 17:12N 34°09' W 119°12'0 0.0
2017-Oct-14 16:27N 34°09' W 119°12'0 0.0
2017-Oct-14 14:48N 34°09' W 119°12'0 0.0
2017-Oct-14 14:30N 34°09' W 119°12'0 0.2
2017-Oct-14 14:00N 34°09' W 119°12'3 5.6
2017-Oct-14 13:28N 34°06' W 119°14'4 9.1
2017-Oct-14 13:00N 34°02' W 119°12'5 9.4
2017-Oct-14 12:30N 33°58' W 119°11'5 9.4
2017-Oct-14 12:00N 33°54' W 119°08'5 9.4
2017-Oct-14 11:30N 33°50' W 119°04'5 9.5
2017-Oct-14 11:00N 33°46' W 119°01'5 9.8
2017-Oct-14 10:30N 33°42' W 118°58'5 9.5
2017-Oct-14 10:00N 33°38' W 118°55'5 9.5
2017-Oct-14 09:30N 33°34' W 118°51'5 9.1
2017-Oct-14 09:00N 33°30' W 118°48'4 9.1
2017-Oct-14 08:30N 33°27' W 118°45'5 9.5
2017-Oct-14 08:00N 33°23' W 118°42'5 9.5
2017-Oct-14 07:30N 33°20' W 118°38'5 9.2
2017-Oct-14 07:00N 33°17' W 118°34'4 8.9
2017-Oct-14 06:30N 33°14' W 118°30'5 9.0
2017-Oct-14 06:00N 33°10' W 118°26'4 8.7
2017-Oct-14 05:30N 33°07' W 118°22'4 8.5
2017-Oct-14 05:00N 33°04' W 118°18'4 8.6
2017-Oct-14 04:30N 33°01' W 118°15'5 9.3
2017-Oct-14 04:00N 32°58' W 118°11'5 9.4
2017-Oct-14 03:30N 32°55' W 118°07'5 9.2
2017-Oct-14 03:00N 32°52' W 118°03'5 9.7
2017-Oct-14 02:30N 32°49' W 117°58'5 9.9
2017-Oct-14 02:00N 32°45' W 117°54'5 9.9
2017-Oct-14 01:30N 32°42' W 117°50'510.1
2017-Oct-14 01:00N 32°38' W 117°45'510.7
2017-Oct-14 00:30N 32°35' W 117°41'510.8
2017-Oct-14 00:00N 32°31' W 117°36'510.9
2017-Oct-13 23:30N 32°27' W 117°31'510.7
2017-Oct-13 23:00N 32°24' W 117°27'510.6
2017-Oct-13 22:30N 32°20' W 117°22'510.7
2017-Oct-13 22:00N 32°17' W 117°17'  

Dump ship's entire track history